Time;durP1;ratioP1;P1;durP2;ratioP2;P2;SDS_P1;SDS_P2;PMS_P1;PMS_P2;Temp;Humidity;BMP_temperature;BMP_pressure;BME280_temperature;BME280_humidity;BME280_pressure;Samples;Min_cycle;Max_cycle;Signal;HPM_P1;HPM_P2
2021/05/20 00:00:34;;;;;;;1.10;0.70;;;;;;;7.74;80.09;97181.19;4943313;28;20066;-63
2021/05/20 00:03:00;;;;;;;1.65;0.70;;;;;;;7.75;79.44;97171.06;4941997;28;20043;-64
2021/05/20 00:05:25;;;;;;;1.25;0.60;;;;;;;7.59;80.89;97179.09;4937837;28;22118;-63
2021/05/20 00:07:51;;;;;;;0.70;0.70;;;;;;;7.65;81.17;97175.81;4959047;28;20050;-62
2021/05/20 00:10:17;;;;;;;1.45;0.60;;;;;;;7.71;80.77;97176.41;4955981;28;20058;-63
2021/05/20 00:12:44;;;;;;;0.70;0.60;;;;;;;7.68;81.04;97176.28;4954476;28;20042;-64
2021/05/20 00:15:11;;;;;;;3.25;0.73;;;;;;;7.68;81.03;97174.34;4951886;28;20077;-64
2021/05/20 00:17:37;;;;;;;1.13;0.70;;;;;;;7.84;81.40;97180.75;4959271;28;20567;-63
2021/05/20 00:20:03;;;;;;;1.90;1.00;;;;;;;7.88;80.37;97185.53;4957838;28;20138;-62
2021/05/20 00:22:29;;;;;;;3.67;1.23;;;;;;;8.01;78.95;97184.44;4960075;28;20047;-63
2021/05/20 00:24:56;;;;;;;1.92;1.17;;;;;;;7.97;79.65;97180.78;4955164;28;20155;-64
2021/05/20 00:27:21;;;;;;;1.17;0.80;;;;;;;7.91;80.41;97176.69;4955860;28;20480;-65
2021/05/20 00:29:49;;;;;;;1.52;0.77;;;;;;;7.96;80.32;97182.72;4954369;28;20467;-63
2021/05/20 00:32:14;;;;;;;0.88;0.73;;;;;;;7.78;81.87;97178.59;4955469;28;20053;-63
2021/05/20 00:34:40;;;;;;;1.20;1.10;;;;;;;7.66;81.25;97180.13;4953112;28;20129;-63
2021/05/20 00:37:06;;;;;;;2.28;0.80;;;;;;;7.68;82.16;97179.00;4953364;28;20051;-63
2021/05/20 00:39:31;;;;;;;0.68;0.65;;;;;;;7.60;82.05;97178.75;4956604;28;20403;-63
2021/05/20 00:41:56;;;;;;;1.17;0.70;;;;;;;7.62;82.46;97181.16;4962805;28;20053;-63
2021/05/20 00:44:22;;;;;;;2.40;0.95;;;;;;;7.66;81.43;97173.88;4956431;28;20055;-63
2021/05/20 00:46:47;;;;;;;1.35;0.90;;;;;;;7.80;81.28;97179.06;4955705;28;20456;-63
2021/05/20 00:49:13;;;;;;;1.33;0.70;;;;;;;7.84;81.51;97185.41;4949308;28;20082;-63
2021/05/20 00:51:40;;;;;;;1.20;0.80;;;;;;;7.69;81.11;97177.84;4961292;28;20047;-63
2021/05/20 00:54:10;;;;;;;1.88;0.77;;;;;;;7.62;81.75;97181.16;4957139;28;20419;-63
2021/05/20 00:56:39;;;;;;;0.60;0.60;;;;;;;7.58;83.19;97177.47;4965732;28;20391;-61
2021/05/20 00:59:05;;;;;;;;;;;;;;;7.65;82.28;97180.47;4961396;28;20074;-61
2021/05/20 01:01:34;;;;;;;1.00;0.90;;;;;;;7.70;81.50;97185.72;4965045;28;20405;-63
2021/05/20 01:04:00;;;;;;;1.63;0.85;;;;;;;7.59;81.96;97176.34;4962367;28;20050;-62
2021/05/20 01:06:25;;;;;;;2.17;0.88;;;;;;;7.64;82.58;97171.50;4960214;28;20057;-61
2021/05/20 01:08:51;;;;;;;1.60;1.00;;;;;;;7.75;81.41;97176.53;4964236;28;20483;-62
2021/05/20 01:11:18;;;;;;;1.58;0.90;;;;;;;7.76;81.31;97176.19;4960260;28;20039;-63
2021/05/20 01:13:44;;;;;;;1.40;0.75;;;;;;;7.90;80.63;97180.53;4965243;28;20183;-61
2021/05/20 01:16:13;;;;;;;1.35;0.88;;;;;;;7.83;81.89;97175.63;4960399;28;20479;-61
2021/05/20 01:18:38;;;;;;;1.80;0.80;;;;;;;7.70;82.17;97176.72;4964934;28;20530;-64
2021/05/20 01:21:04;;;;;;;2.65;0.70;;;;;;;7.76;82.40;97172.66;4961866;28;20059;-61
2021/05/20 01:23:30;;;;;;;2.08;0.98;;;;;;;7.84;82.63;97174.50;4963248;28;20487;-63
2021/05/20 01:26:01;;;;;;;1.25;0.75;;;;;;;7.74;83.33;97169.47;4968359;28;20133;-62
2021/05/20 01:28:28;;;;;;;1.23;0.90;;;;;;;7.72;82.35;97169.00;4973872;28;20046;-63
2021/05/20 01:30:54;;;;;;;1.75;1.00;;;;;;;7.66;82.70;97169.22;4971444;28;20049;-62
2021/05/20 01:33:19;;;;;;;1.52;1.00;;;;;;;7.40;85.00;97174.94;4960130;28;20151;-63
2021/05/20 01:35:48;;;;;;;2.15;1.08;;;;;;;7.42;85.27;97166.44;4978094;28;20043;-62
2021/05/20 01:38:41;;;;;;;1.17;0.77;;;;;;;7.54;84.83;97182.00;4978913;28;20035;-62
2021/05/20 01:41:12;;;;;;;1.40;1.00;;;;;;;7.57;84.91;97173.97;4961643;28;20074;-61
2021/05/20 01:43:40;;;;;;;2.45;1.08;;;;;;;7.52;85.14;97174.16;4965202;28;20136;-64
2021/05/20 01:46:06;;;;;;;2.67;1.20;;;;;;;7.57;85.16;97184.06;4959717;28;20046;-63
2021/05/20 01:48:38;;;;;;;2.42;0.88;;;;;;;7.47;86.13;97175.19;4965398;28;20101;-63
2021/05/20 01:51:15;;;;;;;2.10;1.13;;;;;;;7.39;86.63;97181.50;4961478;28;20411;-62
2021/05/20 01:53:44;;;;;;;1.45;1.00;;;;;;;7.45;87.87;97177.44;4963552;28;20043;-63
2021/05/20 01:56:10;;;;;;;1.30;1.20;;;;;;;7.49;87.05;97183.03;4958710;28;20129;-64
2021/05/20 01:58:37;;;;;;;1.67;1.00;;;;;;;7.38;87.91;97179.09;4963871;28;20507;-63
2021/05/20 02:01:04;;;;;;;2.05;1.20;;;;;;;7.46;87.24;97181.75;4963812;28;20053;-58
2021/05/20 02:03:30;;;;;;;1.80;0.95;;;;;;;7.41;87.58;97187.41;4963067;28;20104;-62
2021/05/20 02:05:58;;;;;;;3.17;1.20;;;;;;;7.45;86.67;97184.81;4965589;28;20046;-61
2021/05/20 02:08:25;;;;;;;2.15;0.90;;;;;;;7.37;86.93;97183.75;4959271;28;20045;-62
2021/05/20 02:10:50;;;;;;;1.30;0.82;;;;;;;7.40;87.16;97195.91;4962358;28;20051;-63
2021/05/20 02:13:16;;;;;;;4.32;0.82;;;;;;;7.62;86.71;97189.31;4958199;28;20126;-62
2021/05/20 02:15:41;;;;;;;1.30;1.00;;;;;;;7.65;86.29;97196.81;4963083;28;20058;-63
2021/05/20 02:18:07;;;;;;;1.80;1.00;;;;;;;7.77;84.79;97193.34;4959362;28;20047;-63
2021/05/20 02:20:34;;;;;;;1.50;0.90;;;;;;;7.72;85.14;97201.72;4965308;28;20416;-62
2021/05/20 02:23:00;;;;;;;1.05;0.80;;;;;;;7.69;85.12;97191.50;4963974;28;20047;-63
2021/05/20 02:25:26;;;;;;;2.13;0.90;;;;;;;7.75;85.05;97195.63;4960583;28;20049;-62
2021/05/20 02:27:51;;;;;;;0.95;0.80;;;;;;;7.63;85.58;97191.72;4964024;28;20475;-62
2021/05/20 02:30:17;;;;;;;1.25;0.90;;;;;;;7.63;85.04;97197.19;4958494;28;20043;-63
2021/05/20 02:32:43;;;;;;;2.75;0.88;;;;;;;7.57;85.38;97201.22;4964204;28;20049;-62
2021/05/20 02:35:09;;;;;;;1.25;0.85;;;;;;;7.63;85.22;97199.09;4978389;23;20063;-58
2021/05/20 02:37:35;;;;;;;1.52;0.90;;;;;;;7.59;85.46;97201.69;4971133;28;20121;-56
2021/05/20 02:40:02;;;;;;;2.42;1.00;;;;;;;7.60;86.09;97195.13;4973214;28;20053;-58
2021/05/20 02:42:28;;;;;;;2.63;0.98;;;;;;;7.76;85.62;97189.00;4985361;28;20069;-62
2021/05/20 02:44:53;;;;;;;1.05;0.70;;;;;;;7.85;84.86;97187.03;4989251;28;20046;-62
2021/05/20 02:47:19;;;;;;;1.42;0.73;;;;;;;7.90;83.70;97188.72;4981207;28;20136;-61
2021/05/20 02:49:44;;;;;;;1.60;1.10;;;;;;;7.90;83.70;97188.72;4984789;28;20178;-62
2021/05/20 02:52:10;;;;;;;1.25;0.70;;;;;;;7.86;84.73;97191.31;4975049;28;20056;-58
2021/05/20 02:54:37;;;;;;;0.88;0.70;;;;;;;7.78;84.14;97193.00;4971900;28;20451;-59
2021/05/20 02:57:03;;;;;;;1.13;0.80;;;;;;;7.71;85.15;97187.31;4979135;28;20096;-62
2021/05/20 02:59:30;;;;;;;1.13;0.82;;;;;;;7.62;85.72;97197.50;4974530;28;20046;-60
2021/05/20 03:02:03;;;;;;;1.55;1.00;;;;;;;7.67;86.11;97200.03;4985011;28;20050;-59
2021/05/20 03:04:28;;;;;;;3.35;0.90;;;;;;;7.73;85.83;97198.69;4968577;28;20045;-62
2021/05/20 03:06:54;;;;;;;1.33;1.00;;;;;;;7.69;85.49;97197.75;4991720;28;20046;-60
2021/05/20 03:09:19;;;;;;;2.63;1.10;;;;;;;7.71;86.01;97202.88;4979912;28;20082;-57
2021/05/20 03:11:45;;;;;;;1.85;0.95;;;;;;;7.87;85.61;97192.94;4977186;28;20054;-60
2021/05/20 03:14:10;;;;;;;1.30;0.80;;;;;;;7.83;84.42;97197.44;4966732;28;20039;-61
2021/05/20 03:16:36;;;;;;;2.75;1.00;;;;;;;7.74;85.17;97203.00;4968019;28;20050;-61
2021/05/20 03:19:02;;;;;;;1.02;0.82;;;;;;;7.74;85.04;97202.19;4965536;28;20069;-61
2021/05/20 03:21:27;;;;;;;2.05;0.90;;;;;;;7.78;85.23;97201.19;4971501;28;20066;-60
2021/05/20 03:23:54;;;;;;;2.30;0.98;;;;;;;7.76;84.52;97197.19;4962726;28;20070;-61
2021/05/20 03:26:20;;;;;;;3.30;1.10;;;;;;;7.69;85.61;97199.66;4957478;28;20130;-59
2021/05/20 03:28:45;;;;;;;3.15;1.50;;;;;;;7.61;85.12;97201.34;4978806;28;20129;-61
2021/05/20 03:31:11;;;;;;;2.50;1.38;;;;;;;7.32;87.07;97203.03;4974472;28;20050;-61
2021/05/20 03:33:40;;;;;;;3.78;2.05;;;;;;;7.33;87.41;97212.00;4972534;28;20063;-61
2021/05/20 03:36:06;;;;;;;2.30;1.63;;;;;;;7.24;88.30;97204.72;4975913;28;20058;-60
2021/05/20 03:38:31;;;;;;;2.30;1.80;;;;;;;7.27;87.70;97208.69;4977293;28;20097;-60
2021/05/20 03:40:56;;;;;;;2.22;1.60;;;;;;;7.17;88.33;97209.09;4978143;28;20113;-60
2021/05/20 03:43:23;;;;;;;3.45;1.60;;;;;;;7.22;88.47;97212.41;4973725;28;21010;-60
2021/05/20 03:45:48;;;;;;;4.03;1.75;;;;;;;7.30;87.80;97210.75;4981999;28;20038;-61
2021/05/20 03:48:14;;;;;;;2.25;1.60;;;;;;;7.30;88.29;97212.69;4976755;28;20053;-59
2021/05/20 03:50:40;;;;;;;3.28;1.88;;;;;;;7.36;88.50;97214.84;4981133;28;20142;-58
2021/05/20 03:53:05;;;;;;;4.28;1.60;;;;;;;7.53;86.95;97216.66;4970618;28;20046;-60
2021/05/20 03:55:31;;;;;;;4.15;1.92;;;;;;;7.68;86.86;97225.34;4977596;28;20100;-60
2021/05/20 03:57:56;;;;;;;5.20;1.50;;;;;;;7.71;85.94;97222.75;4981406;28;20475;-62
2021/05/20 04:00:22;;;;;;;3.33;1.60;;;;;;;7.67;86.59;97221.84;4973364;28;20392;-61
2021/05/20 04:02:49;;;;;;;12.82;4.90;;;;;;;7.79;85.65;97223.81;4979036;28;20042;-61
2021/05/20 04:05:14;;;;;;;3.80;2.75;;;;;;;7.85;86.24;97227.94;4974084;28;20129;-60
2021/05/20 04:07:39;;;;;;;3.20;1.80;;;;;;;7.86;85.81;97224.06;4975401;28;20482;-61
2021/05/20 04:10:06;;;;;;;4.35;2.00;;;;;;;7.88;85.71;97229.97;4974150;28;20710;-61
2021/05/20 04:12:31;;;;;;;2.78;1.73;;;;;;;7.76;85.73;97232.66;4972583;28;20046;-61
2021/05/20 04:14:56;;;;;;;2.17;1.58;;;;;;;7.69;86.29;97221.47;4980138;28;20514;-61
2021/05/20 04:17:22;;;;;;;5.90;1.30;;;;;;;7.78;86.30;97225.75;4974972;28;20502;-61
2021/05/20 04:19:47;;;;;;;3.75;1.77;;;;;;;7.98;86.77;97237.72;4977298;28;20430;-60
2021/05/20 04:22:12;;;;;;;2.67;1.70;;;;;;;8.18;86.05;97232.56;4974607;28;20153;-60
2021/05/20 04:24:38;;;;;;;4.32;1.92;;;;;;;8.10;85.80;97231.50;4978376;28;20042;-60
2021/05/20 04:27:05;;;;;;;3.25;1.80;;;;;;;8.25;85.79;97235.53;4975435;28;20571;-60
2021/05/20 04:29:30;;;;;;;5.80;1.70;;;;;;;7.95;86.27;97240.34;4982623;28;20606;-59
2021/05/20 04:31:56;;;;;;;4.03;1.60;;;;;;;7.98;87.49;97243.19;4980453;28;20042;-60
2021/05/20 04:34:21;;;;;;;8.27;4.75;;;;;;;7.84;88.72;97240.75;4988780;28;20599;-60
2021/05/20 04:36:47;;;;;;;4.43;2.30;;;;;;;7.91;88.06;97242.16;4976584;28;20038;-60
2021/05/20 04:39:12;;;;;;;4.65;2.00;;;;;;;8.07;87.83;97236.84;4974543;28;20076;-57
2021/05/20 04:41:37;;;;;;;2.78;1.90;;;;;;;8.24;86.67;97244.84;4977467;28;20045;-60
2021/05/20 04:44:03;;;;;;;3.20;1.25;;;;;;;8.07;88.58;97242.28;4973372;28;20039;-61
2021/05/20 04:46:29;;;;;;;3.78;2.10;;;;;;;8.01;88.91;97238.97;4992355;28;20125;-61
2021/05/20 04:48:54;;;;;;;2.67;1.75;;;;;;;7.96;89.06;97250.09;4978829;28;20042;-60
2021/05/20 04:51:20;;;;;;;2.88;1.65;;;;;;;8.18;88.71;97247.00;4977347;28;20046;-60
2021/05/20 04:53:45;;;;;;;3.33;1.75;;;;;;;8.34;88.55;97258.06;4980632;28;20057;-59
2021/05/20 04:56:11;;;;;;;5.85;2.50;;;;;;;8.28;89.81;97251.22;4970494;28;20717;-58
2021/05/20 04:58:36;;;;;;;4.07;1.98;;;;;;;8.49;88.11;97258.56;4982877;28;20555;-60
2021/05/20 05:01:02;;;;;;;3.28;1.88;;;;;;;8.45;88.48;97263.13;4980963;28;20054;-61
2021/05/20 05:03:28;;;;;;;3.72;2.55;;;;;;;8.33;88.70;97259.19;4973993;28;20105;-61
2021/05/20 05:05:54;;;;;;;12.52;5.40;;;;;;;8.28;88.98;97256.66;4979549;28;20046;-61
2021/05/20 05:08:20;;;;;;;4.72;2.33;;;;;;;8.42;87.08;97254.44;4975169;28;20049;-61
2021/05/20 05:10:45;;;;;;;3.17;1.70;;;;;;;8.44;86.05;97259.56;4981984;28;20566;-61
2021/05/20 05:13:11;;;;;;;1.98;1.25;;;;;;;8.32;87.06;97256.78;4978235;28;20137;-61
2021/05/20 05:15:36;;;;;;;1.70;1.10;;;;;;;8.07;88.20;97264.13;4982081;28;20052;-60
2021/05/20 05:18:02;;;;;;;3.83;1.17;;;;;;;7.96;88.88;97261.00;4981254;28;20140;-60
2021/05/20 05:20:27;;;;;;;2.28;1.42;;;;;;;7.85;90.66;97264.19;4978656;28;20062;-60
2021/05/20 05:22:52;;;;;;;1.75;1.13;;;;;;;7.82;90.79;97269.50;4981807;28;20054;-59
2021/05/20 05:25:18;;;;;;;1.73;1.35;;;;;;;7.85;90.28;97268.84;4977932;28;20038;-61
2021/05/20 05:27:43;;;;;;;2.55;1.13;;;;;;;7.82;90.88;97275.75;4978358;28;20061;-60
2021/05/20 05:30:09;;;;;;;9.32;4.85;;;;;;;7.89;89.70;97274.41;4974445;28;20042;-60
2021/05/20 05:32:35;;;;;;;2.55;1.30;;;;;;;7.80;90.08;97261.66;4976962;28;20558;-60
2021/05/20 05:35:00;;;;;;;1.63;1.00;;;;;;;7.85;88.34;97268.84;4978690;28;20050;-59
2021/05/20 05:37:26;;;;;;;1.42;1.10;;;;;;;7.80;90.30;97269.03;4971765;28;20050;-61
2021/05/20 05:39:52;;;;;;;2.17;1.40;;;;;;;7.83;90.17;97279.25;4977398;28;20429;-59
2021/05/20 05:42:18;;;;;;;2.13;1.38;;;;;;;7.85;90.89;97274.28;4975256;28;20084;-60
2021/05/20 05:44:43;;;;;;;1.60;1.30;;;;;;;7.86;90.60;97273.16;4982490;28;20078;-62
2021/05/20 05:47:09;;;;;;;3.17;1.20;;;;;;;7.76;90.91;97273.53;4983104;28;20050;-61
2021/05/20 05:49:39;;;;;;;2.53;1.50;;;;;;;7.69;90.75;97285.00;4992117;28;20049;-61
2021/05/20 05:52:07;;;;;;;3.63;1.45;;;;;;;7.92;89.92;97277.25;4988354;28;20048;-61
2021/05/20 05:54:33;;;;;;;2.15;1.13;;;;;;;8.06;90.22;97282.41;5000871;28;20050;-57
2021/05/20 05:56:59;;;;;;;2.60;1.40;;;;;;;7.99;90.45;97274.00;4979220;28;20042;-60
2021/05/20 05:59:24;;;;;;;3.30;1.13;;;;;;;8.13;90.16;97285.41;4978778;28;20147;-62
2021/05/20 06:01:49;;;;;;;1.73;1.23;;;;;;;8.13;90.36;97279.16;4983645;28;20054;-61
2021/05/20 06:04:15;;;;;;;1.20;1.05;;;;;;;8.36;89.18;97287.75;4977717;28;20042;-61
2021/05/20 06:06:45;;;;;;;2.72;1.13;;;;;;;8.45;88.47;97283.03;4979668;28;20634;-60
2021/05/20 06:09:12;;;;;;;4.43;1.30;;;;;;;8.38;88.34;97289.00;4973671;28;20050;-61
2021/05/20 06:11:37;;;;;;;3.40;1.60;;;;;;;8.26;89.07;97304.53;4974243;28;20046;-61
2021/05/20 06:14:06;;;;;;;4.57;1.60;;;;;;;8.51;89.42;97306.22;4960731;28;20039;-61
2021/05/20 06:16:35;;;;;;;2.65;1.50;;;;;;;8.67;88.93;97309.09;4964045;28;20042;-61
2021/05/20 06:19:04;;;;;;;2.33;1.33;;;;;;;8.73;87.49;97312.41;4968981;28;20046;-61
2021/05/20 06:21:29;;;;;;;1.77;1.35;;;;;;;8.64;87.41;97314.44;4977924;28;20054;-60
2021/05/20 06:23:55;;;;;;;1.83;1.30;;;;;;;8.41;88.95;97318.34;4980726;28;20120;-61
2021/05/20 06:26:20;;;;;;;3.63;1.23;;;;;;;8.53;88.78;97300.44;4975697;28;20585;-62
2021/05/20 06:28:45;;;;;;;1.42;1.17;;;;;;;8.57;88.12;97315.00;4978418;28;20526;-62
2021/05/20 06:31:11;;;;;;;1.77;1.30;;;;;;;8.69;87.74;97316.97;4972785;28;20411;-62
2021/05/20 06:33:36;;;;;;;2.15;1.50;;;;;;;8.59;89.08;97316.28;4963568;28;20069;-62
2021/05/20 06:36:02;;;;;;;1.88;1.40;;;;;;;8.66;88.83;97321.19;4985454;28;20133;-63
2021/05/20 06:38:27;;;;;;;1.98;1.20;;;;;;;8.65;89.59;97321.53;4984693;28;20049;-61
2021/05/20 06:40:55;;;;;;;3.97;1.25;;;;;;;8.82;88.22;97325.97;4980034;28;20053;-60
2021/05/20 06:43:20;;;;;;;2.25;1.35;;;;;;;9.22;86.68;97323.38;4972391;28;20628;-60
2021/05/20 06:45:46;;;;;;;1.60;1.13;;;;;;;9.38;86.18;97327.00;4978965;28;20054;-59
2021/05/20 06:48:15;;;;;;;1.83;1.30;;;;;;;9.62;85.98;97324.59;4972526;28;20077;-61
2021/05/20 06:50:40;;;;;;;1.13;0.95;;;;;;;9.98;85.09;97326.44;4980302;28;20058;-57
2021/05/20 06:53:06;;;;;;;1.52;0.98;;;;;;;10.26;82.74;97329.19;4966917;28;20104;-60
2021/05/20 06:55:31;;;;;;;1.83;1.05;;;;;;;10.11;82.03;97327.19;4972958;28;20058;-62
2021/05/20 07:00:36;;;;;;;1.58;1.10;;;;;;;9.98;83.34;97325.63;4972696;28;20047;-61
2021/05/20 07:03:04;;;;;;;1.80;1.52;;;;;;;9.83;83.88;97330.69;4980411;28;20047;-61
2021/05/20 07:05:30;;;;;;;1.60;1.02;;;;;;;9.69;84.18;97333.81;4979529;28;20050;-60
2021/05/20 07:07:57;;;;;;;1.55;1.10;;;;;;;9.57;84.92;97336.56;4962988;28;20495;-61
2021/05/20 07:10:22;;;;;;;3.33;1.40;;;;;;;9.36;85.15;97339.41;4956855;28;20146;-60
2021/05/20 07:12:48;;;;;;;1.90;1.30;;;;;;;9.62;86.17;97335.53;4978937;28;20117;-60
2021/05/20 07:15:14;;;;;;;1.95;1.20;;;;;;;9.97;84.97;97337.72;4973917;28;20077;-60
2021/05/20 07:17:39;;;;;;;1.38;1.00;;;;;;;10.54;81.30;97344.81;4979451;28;20049;-60
2021/05/20 07:20:07;;;;;;;5.50;1.25;;;;;;;11.59;79.39;97328.97;4977227;28;20046;-63
2021/05/20 07:22:32;;;;;;;2.38;1.17;;;;;;;12.49;73.50;97336.31;4970902;28;20050;-61
2021/05/20 07:25:02;;;;;;;1.42;0.90;;;;;;;11.51;75.80;97330.75;4976176;28;20047;-61
2021/05/20 07:27:28;;;;;;;1.98;1.10;;;;;;;10.86;78.23;97329.22;4959465;28;20046;-60
2021/05/20 07:29:53;;;;;;;1.33;0.90;;;;;;;10.45;80.23;97328.53;4973362;28;20046;-59
2021/05/20 07:32:20;;;;;;;4.07;1.30;;;;;;;10.35;81.07;97341.94;4969281;28;20062;-61
2021/05/20 07:34:46;;;;;;;1.48;1.00;;;;;;;10.25;81.79;97340.47;4980861;28;20084;-62
2021/05/20 07:37:11;;;;;;;1.80;1.30;;;;;;;10.62;80.38;97343.84;4963562;28;20074;-61
2021/05/20 07:39:37;;;;;;;1.85;1.40;;;;;;;11.14;75.40;97343.97;4977846;28;20054;-62
2021/05/20 07:42:03;;;;;;;1.15;0.90;;;;;;;11.24;77.83;97338.75;4961754;28;20455;-64
2021/05/20 07:44:29;;;;;;;2.20;1.10;;;;;;;11.79;79.51;97332.53;4962685;28;20046;-62
2021/05/20 07:46:56;;;;;;;1.27;1.10;;;;;;;12.06;75.71;97330.78;4979830;28;20046;-63
2021/05/20 07:49:21;;;;;;;1.90;1.00;;;;;;;11.71;74.21;97333.53;4966379;28;20436;-58
2021/05/20 07:51:47;;;;;;;0.80;0.80;;;;;;;11.01;76.79;97341.31;4962883;28;20408;-60
2021/05/20 07:54:12;;;;;;;1.30;0.80;;;;;;;10.94;80.22;97334.88;4956450;28;20043;-60
2021/05/20 07:56:38;;;;;;;1.40;0.93;;;;;;;10.48;82.24;97354.44;4977993;28;20109;-60
2021/05/20 07:59:03;;;;;;;1.83;1.10;;;;;;;10.77;81.53;97353.25;4980719;28;20049;-60
2021/05/20 08:01:31;;;;;;;2.80;1.52;;;;;;;10.73;82.20;97351.56;4984759;28;20043;-62
2021/05/20 08:04:02;;;;;;;3.47;0.70;;;;;;;10.32;73.81;97352.44;4979320;28;20506;-60
2021/05/20 08:06:35;;;;;;;1.02;0.80;;;;;;;9.92;80.08;97347.78;4979358;28;20050;-58
2021/05/20 08:11:59;;;;;;;1.77;0.90;;;;;;;10.45;76.76;97361.41;4955412;28;20043;-60
2021/05/20 08:14:24;;;;;;;1.42;0.90;;;;;;;10.52;79.22;97363.53;4956456;28;20047;-62
2021/05/20 08:16:50;;;;;;;0.93;0.65;;;;;;;10.41;80.08;97357.00;4960507;28;20042;-60
2021/05/20 08:19:15;;;;;;;1.17;0.80;;;;;;;10.46;82.04;97364.94;4955730;28;20047;-60
2021/05/20 08:21:41;;;;;;;1.05;0.80;;;;;;;10.88;80.83;97351.56;4961783;28;20858;-60
2021/05/20 08:24:07;;;;;;;3.85;1.10;;;;;;;11.30;80.55;97352.97;4956522;28;20049;-59
2021/05/20 08:26:33;;;;;;;2.25;0.80;;;;;;;12.05;76.74;97351.94;4962613;28;20071;-60
2021/05/20 08:28:58;;;;;;;1.85;0.80;;;;;;;12.33;75.81;97347.41;4961711;28;20533;-61
2021/05/20 08:31:25;;;;;;;1.23;0.80;;;;;;;12.68;74.86;97344.53;4955917;28;20059;-61
2021/05/20 08:33:51;;;;;;;3.08;0.85;;;;;;;13.20;74.01;97343.09;4960777;28;20096;-60
2021/05/20 08:36:16;;;;;;;4.40;2.15;;;;;;;13.53;68.96;97347.16;4954755;28;20508;-60
2021/05/20 08:38:42;;;;;;;2.92;1.10;;;;;;;13.75;71.66;97344.72;4961624;28;20047;-61
2021/05/20 08:41:07;;;;;;;1.52;1.00;;;;;;;14.24;68.61;97338.28;4968452;28;20047;-60
2021/05/20 08:43:33;;;;;;;1.13;0.60;;;;;;;15.47;63.56;97323.72;4980624;28;20050;-61
2021/05/20 08:45:58;;;;;;;1.13;0.60;;;;;;;14.60;63.57;97335.16;4977317;28;20038;-60
2021/05/20 08:48:24;;;;;;;0.90;0.68;;;;;;;14.90;66.20;97327.59;4975496;28;20045;-61
2021/05/20 08:50:49;;;;;;;0.70;0.50;;;;;;;13.80;67.16;97327.09;4980903;28;20396;-58
2021/05/20 08:53:15;;;;;;;0.60;0.50;;;;;;;13.64;63.24;97335.53;4973190;28;20059;-61
2021/05/20 08:55:40;;;;;;;1.00;0.60;;;;;;;12.65;68.62;97336.22;4979601;28;20042;-59
2021/05/20 08:58:10;;;;;;;2.35;0.60;;;;;;;11.78;72.62;97333.69;4974667;28;20569;-60
2021/05/20 09:00:35;;;;;;;2.33;1.05;;;;;;;11.72;72.54;97332.38;4980597;28;20049;-60
2021/05/20 09:03:13;;;;;;;2.00;1.33;;;;;;;11.52;73.97;97337.03;4979321;28;20034;-61
2021/05/20 09:05:40;;;;;;;1.75;0.90;;;;;;;11.83;73.44;97336.94;4974659;28;20050;-60
2021/05/20 09:08:12;;;;;;;1.67;0.95;;;;;;;11.65;73.54;97333.81;4975630;28;20137;-58
2021/05/20 09:10:39;;;;;;;0.98;0.65;;;;;;;11.94;73.98;97336.41;4979173;28;20403;-58
2021/05/20 09:13:06;;;;;;;6.93;0.90;;;;;;;12.91;68.34;97325.31;4976204;28;20038;-60
2021/05/20 09:15:36;;;;;;;1.73;1.02;;;;;;;14.20;66.20;97333.91;4983635;28;20080;-57
2021/05/20 09:18:15;;;;;;;0.63;0.60;;;;;;;14.70;59.88;97327.00;4983246;28;20506;-56
2021/05/20 09:20:49;;;;;;;0.47;0.47;;;;;;;14.13;59.55;97327.16;4981408;28;20050;-56
2021/05/20 09:23:20;;;;;;;1.95;0.50;;;;;;;14.38;60.99;97323.88;4963896;28;20035;-58
2021/05/20 09:25:47;;;;;;;0.98;0.50;;;;;;;13.75;63.07;97319.94;4980860;28;20046;-61
2021/05/20 09:28:15;;;;;;;2.92;0.98;;;;;;;14.76;58.93;97312.88;4972867;28;20082;-58
2021/05/20 09:30:45;;;;;;;3.17;0.50;;;;;;;15.08;59.22;97322.22;4965148;28;20051;-60
2021/05/20 09:33:14;;;;;;;;;;;;;;;14.73;57.24;97325.47;4975321;28;20146;-58
2021/05/20 09:35:42;;;;;;;0.57;0.40;;;;;;;15.01;58.60;97324.94;4982085;28;20014;-60
2021/05/20 09:38:16;;;;;;;1.95;0.50;;;;;;;15.73;50.88;97311.66;4967260;28;20038;-60
2021/05/20 09:40:48;;;;;;;2.22;0.75;;;;;;;14.95;55.40;97312.66;4973792;28;21956;-61
2021/05/20 09:43:14;;;;;;;1.05;0.40;;;;;;;15.48;55.80;97311.50;4972377;28;20057;-61
2021/05/20 09:45:40;;;;;;;0.90;0.60;;;;;;;15.77;52.78;97318.03;4982368;28;20194;-60
2021/05/20 09:48:08;;;;;;;0.85;0.50;;;;;;;16.16;50.10;97313.88;4985440;28;20082;-60
2021/05/20 09:50:45;;;;;;;0.60;0.50;;;;;;;15.12;55.70;97318.72;4980723;28;20084;-59
2021/05/20 09:53:14;;;;;;;0.52;0.50;;;;;;;14.60;53.42;97324.13;4975802;28;20081;-60
2021/05/20 09:56:01;;;;;;;0.65;0.35;;;;;;;14.33;56.55;97316.75;4974516;28;20398;-60
2021/05/20 09:58:29;;;;;;;0.75;0.38;;;;;;;13.88;57.44;97326.81;4970519;28;20057;-60
2021/05/20 10:00:56;;;;;;;0.57;0.40;;;;;;;13.83;60.09;97334.59;4982027;28;20093;-59
2021/05/20 10:03:23;;;;;;;1.00;0.40;;;;;;;13.89;59.93;97331.16;4977610;28;20831;-60
2021/05/20 10:05:56;;;;;;;0.70;0.40;;;;;;;14.59;62.12;97337.13;4982209;28;20050;-59
2021/05/20 10:08:23;;;;;;;3.75;0.50;;;;;;;14.32;60.57;97341.91;4978133;28;20150;-60
2021/05/20 10:10:51;;;;;;;1.00;0.52;;;;;;;13.70;63.86;97348.59;4979774;28;20050;-61
2021/05/20 10:13:19;;;;;;;1.30;0.43;;;;;;;13.22;64.75;97356.47;4972252;28;20073;-61
2021/05/20 10:15:45;;;;;;;1.27;0.40;;;;;;;12.95;67.85;97361.13;4982779;28;20060;-60
2021/05/20 10:18:23;;;;;;;3.13;0.60;;;;;;;12.47;67.11;97346.88;4972640;28;20488;-60
2021/05/20 10:20:51;;;;;;;4.07;0.80;;;;;;;11.52;70.95;97351.53;4982074;28;20039;-58
2021/05/20 10:23:22;;;;;;;1.67;0.70;;;;;;;12.10;72.29;97356.38;4977688;28;20045;-59
2021/05/20 10:25:49;;;;;;;1.27;0.55;;;;;;;12.37;70.47;97346.31;4977800;28;20050;-59
2021/05/20 10:28:16;;;;;;;0.75;0.40;;;;;;;12.66;69.13;97349.63;4980471;28;20054;-59
2021/05/20 10:30:44;;;;;;;0.90;0.50;;;;;;;12.84;68.42;97352.69;4986092;28;20145;-57
2021/05/20 10:33:10;;;;;;;2.25;0.80;;;;;;;13.18;67.58;97355.59;4976172;28;20038;-60
2021/05/20 10:35:49;;;;;;;0.73;0.60;;;;;;;13.43;66.28;97364.28;4993040;28;20480;-57
2021/05/20 10:38:30;;;;;;;0.73;0.47;;;;;;;13.26;67.26;97371.06;4960439;28;20125;-59
2021/05/20 10:41:07;;;;;;;4.85;0.60;;;;;;;12.87;68.89;97368.44;4965709;28;20515;-59
2021/05/20 10:43:33;;;;;;;0.47;0.40;;;;;;;12.66;70.07;97359.78;4962811;28;20047;-58
2021/05/20 10:46:08;;;;;;;1.13;0.63;;;;;;;12.61;72.27;97360.91;4966431;28;20061;-61
2021/05/20 10:48:37;;;;;;;1.55;0.60;;;;;;;12.50;73.80;97357.16;4983130;28;20064;-61
2021/05/20 10:51:15;;;;;;;1.50;0.70;;;;;;;12.70;72.13;97350.47;4962562;28;20051;-61
2021/05/20 10:53:45;;;;;;;0.73;0.50;;;;;;;12.73;71.81;97347.00;4966176;28;20042;-60
2021/05/20 10:56:14;;;;;;;2.53;0.60;;;;;;;12.71;71.48;97349.31;4976339;28;20055;-61
2021/05/20 10:58:40;;;;;;;1.80;1.40;;;;;;;12.71;73.02;97351.25;4969839;28;20447;-60
2021/05/20 11:01:30;;;;;;;2.28;0.70;;;;;;;12.80;73.78;97352.63;4972429;28;20046;-61
2021/05/20 11:04:05;;;;;;;0.82;0.70;;;;;;;12.81;73.56;97354.19;4974713;28;20050;-59
2021/05/20 11:06:37;;;;;;;0.90;0.80;;;;;;;13.04;71.76;97347.13;4982235;28;20042;-58
2021/05/20 11:09:07;;;;;;;1.77;1.20;;;;;;;13.25;71.43;97346.69;4980769;28;20043;-61
2021/05/20 11:11:32;;;;;;;1.65;1.10;;;;;;;13.15;67.97;97342.59;4971723;28;20047;-61
2021/05/20 11:13:59;;;;;;;2.05;1.33;;;;;;;13.21;68.81;97335.63;4962079;28;20045;-59
2021/05/20 11:16:36;;;;;;;3.20;0.98;;;;;;;12.69;70.27;97345.34;4964846;28;20047;-59
2021/05/20 11:22:09;;;;;;;1.02;0.70;;;;;;;12.58;71.66;97334.13;4980739;28;20046;-58
2021/05/20 11:24:39;;;;;;;;;;;;;;;12.30;73.54;97329.69;4978276;28;20076;-59
2021/05/20 11:27:14;;;;;;;1.10;0.70;;;;;;;12.23;72.33;97326.81;4980785;28;19914;-61
2021/05/20 11:29:41;;;;;;;0.82;0.55;;;;;;;12.12;72.82;97323.84;4981685;28;20042;-57
2021/05/20 11:37:32;;;;;;;3.30;1.10;;;;;;;12.86;70.56;97311.88;4975982;28;20486;-59
2021/05/20 11:39:58;;;;;;;4.28;1.58;;;;;;;13.89;68.28;97306.38;4975755;28;20050;-60
2021/05/20 11:42:28;;;;;;;2.13;1.17;;;;;;;13.45;68.26;97306.94;4976464;28;20046;-59
2021/05/20 11:44:58;;;;;;;2.00;1.10;;;;;;;13.63;67.28;97300.88;4983159;28;20412;-59
2021/05/20 11:47:24;;;;;;;0.88;0.57;;;;;;;13.85;67.43;97300.03;4976628;28;20341;-58
2021/05/20 11:49:50;;;;;;;10.32;6.13;;;;;;;13.37;66.50;97295.03;4978753;28;20045;-61
2021/05/20 11:52:17;;;;;;;4.25;2.63;;;;;;;13.14;66.94;97295.06;4966410;28;20356;-59